createdAt,value
2022-12-03T00:00:56.110Z,101286.78
2022-12-03T00:03:58.736Z,101299.59
2022-12-03T00:07:01.135Z,101289.81
2022-12-03T00:10:05.060Z,101306.22
2022-12-03T00:13:08.515Z,101303.00
2022-12-03T00:16:10.903Z,101307.81
2022-12-03T00:19:13.475Z,101309.00
2022-12-03T00:22:15.824Z,101317.81
2022-12-03T00:25:18.394Z,101316.41
2022-12-03T00:28:20.639Z,101317.81
2022-12-03T00:31:23.629Z,101315.59
2022-12-03T00:34:26.007Z,101314.03
2022-12-03T00:37:28.491Z,101314.03
2022-12-03T00:40:30.845Z,101313.00
2022-12-03T00:43:33.116Z,101320.59
2022-12-03T00:46:35.393Z,101312.00
2022-12-03T00:49:37.845Z,101315.00
2022-12-03T00:52:40.089Z,101331.00
2022-12-03T00:55:42.357Z,101325.63
2022-12-03T00:58:44.622Z,101319.59
2022-12-03T01:01:46.933Z,101319.59
2022-12-03T01:04:49.189Z,101326.81
2022-12-03T01:07:51.642Z,101322.19
2022-12-03T01:10:53.929Z,101318.81
2022-12-03T01:13:56.186Z,101315.44
2022-12-03T01:16:58.610Z,101315.03
2022-12-03T01:20:01.709Z,101317.03
2022-12-03T01:23:04.479Z,101313.84
2022-12-03T01:26:06.810Z,101310.00
2022-12-03T01:29:09.129Z,101313.03
2022-12-03T01:32:17.896Z,101320.22
2022-12-03T01:35:20.255Z,101321.44
2022-12-03T01:38:22.465Z,101316.63
2022-12-03T01:41:25.239Z,101326.84
2022-12-03T01:44:34.563Z,101323.81
2022-12-03T01:47:38.162Z,101328.63
2022-12-03T01:50:40.449Z,101330.41
2022-12-03T01:53:44.349Z,101333.84
2022-12-03T01:56:47.446Z,101336.63
2022-12-03T01:59:50.381Z,101331.63
2022-12-03T02:02:58.639Z,101330.03
2022-12-03T02:06:01.002Z,101325.22
2022-12-03T02:09:03.470Z,101325.63
2022-12-03T02:12:06.232Z,101321.63
2022-12-03T02:15:10.285Z,101325.41
2022-12-03T02:18:12.841Z,101313.59
2022-12-03T02:21:35.514Z,101315.41
2022-12-03T02:24:48.667Z,101316.81
2022-12-03T02:27:53.344Z,101330.84
2022-12-03T02:30:56.128Z,101318.81
2022-12-03T02:33:58.449Z,101316.22
2022-12-03T02:37:01.347Z,101321.03
2022-12-03T02:40:10.617Z,101322.63
2022-12-03T02:43:16.580Z,101322.00
2022-12-03T02:46:18.891Z,101314.81
2022-12-03T02:49:21.432Z,101320.63
2022-12-03T02:52:24.190Z,101320.03
2022-12-03T02:55:30.781Z,101327.44
2022-12-03T02:58:38.118Z,101323.41
2022-12-03T03:01:40.489Z,101315.22
2022-12-03T03:04:43.842Z,101326.44
2022-12-03T03:07:46.544Z,101324.44
2022-12-03T03:10:49.786Z,101321.00
2022-12-03T03:13:52.032Z,101316.22
2022-12-03T03:16:57.385Z,101314.41
2022-12-03T03:19:59.865Z,101321.00
2022-12-03T03:23:13.288Z,101312.00
2022-12-03T03:26:16.694Z,101311.22
2022-12-03T03:29:19.399Z,101318.41
2022-12-03T03:32:21.678Z,101321.78
2022-12-03T03:35:25.154Z,101321.03
2022-12-03T03:38:29.849Z,101320.81
2022-12-03T03:41:33.229Z,101319.00
2022-12-03T03:44:35.860Z,101322.19
2022-12-03T03:47:38.575Z,101319.59
2022-12-03T03:50:42.161Z,101320.19
2022-12-03T03:53:49.805Z,101321.19
2022-12-03T03:56:52.368Z,101314.97
2022-12-03T03:59:54.611Z,101318.38
2022-12-03T04:02:56.983Z,101323.41
2022-12-03T04:05:59.290Z,101311.41
2022-12-03T04:09:01.613Z,101319.41
2022-12-03T04:12:22.529Z,101325.19
2022-12-03T04:15:25.548Z,101313.00
2022-12-03T04:18:43.058Z,101318.97
2022-12-03T04:22:04.159Z,101322.59
2022-12-03T04:25:34.275Z,101330.19
2022-12-03T04:28:51.364Z,101334.59
2022-12-03T04:32:12.345Z,101326.38
2022-12-03T04:35:33.711Z,101322.59
2022-12-03T04:38:36.061Z,101316.19
2022-12-03T04:41:38.300Z,101319.59
2022-12-03T04:44:40.688Z,101312.56
2022-12-03T04:47:44.768Z,101324.38
2022-12-03T04:50:47.106Z,101325.59
2022-12-03T04:53:49.337Z,101327.78
2022-12-03T04:56:51.691Z,101332.19
2022-12-03T04:59:53.894Z,101338.81
2022-12-03T05:02:56.148Z,101321.59
2022-12-03T05:05:58.492Z,101335.00
2022-12-03T05:09:02.144Z,101341.00
2022-12-03T05:12:04.769Z,101339.22
2022-12-03T05:15:07.460Z,101333.63
2022-12-03T05:18:09.734Z,101333.81
2022-12-03T05:21:12.238Z,101347.25
2022-12-03T05:24:14.559Z,101344.81
2022-12-03T05:27:23.133Z,101345.22
2022-12-03T05:30:26.474Z,101346.66
2022-12-03T05:33:28.753Z,101351.25
2022-12-03T05:36:30.995Z,101350.44
2022-12-03T05:39:33.265Z,101352.66
2022-12-03T05:42:53.934Z,101338.63
2022-12-03T05:45:56.299Z,101339.81
2022-12-03T05:48:58.635Z,101345.44
2022-12-03T05:52:00.954Z,101337.22
2022-12-03T05:55:04.620Z,101348.66
2022-12-03T05:58:07.206Z,101348.03
2022-12-03T06:01:09.486Z,101353.03
2022-12-03T06:04:12.074Z,101355.63
2022-12-03T06:07:14.539Z,101358.84
2022-12-03T06:10:20.851Z,101369.06
2022-12-03T06:13:23.139Z,101375.06
2022-12-03T06:16:25.624Z,101373.88
2022-12-03T06:19:27.955Z,101369.25
2022-12-03T06:22:30.170Z,101368.25
2022-12-03T06:25:32.569Z,101352.81
2022-12-03T06:28:34.810Z,101349.03
2022-12-03T06:31:37.137Z,101355.00
2022-12-03T06:34:39.482Z,101364.22
2022-12-03T06:37:41.766Z,101362.00
2022-12-03T06:40:44.034Z,101352.97
2022-12-03T06:43:46.847Z,101358.19
2022-12-03T06:46:49.268Z,101357.38
2022-12-03T06:49:51.591Z,101367.22
2022-12-03T06:52:53.963Z,101368.00
2022-12-03T06:55:56.277Z,101376.00
2022-12-03T06:58:58.676Z,101362.97
2022-12-03T07:02:01.277Z,101370.16
2022-12-03T07:05:04.335Z,101369.38
2022-12-03T07:08:07.142Z,101368.75
2022-12-03T07:11:28.198Z,101376.16
2022-12-03T07:14:30.498Z,101369.72
2022-12-03T07:17:32.738Z,101377.72
2022-12-03T07:20:35.014Z,101369.84
2022-12-03T07:23:37.731Z,101363.25
2022-12-03T07:26:40.110Z,101367.44
2022-12-03T07:29:42.485Z,101364.25
2022-12-03T07:32:44.769Z,101371.25
2022-12-03T07:35:47.021Z,101375.66
2022-12-03T07:38:49.360Z,101375.66
2022-12-03T07:41:51.637Z,101370.63
2022-12-03T07:44:54.958Z,101373.63
2022-12-03T07:47:58.014Z,101373.41
2022-12-03T07:51:00.376Z,101374.00
2022-12-03T07:54:02.682Z,101371.22
2022-12-03T07:57:05.014Z,101365.78
2022-12-03T08:00:08.879Z,101376.97
2022-12-03T08:03:11.211Z,101372.16
2022-12-03T08:06:13.696Z,101377.91
2022-12-03T08:09:16.589Z,101381.91
2022-12-03T08:12:40.243Z,101386.66
2022-12-03T08:15:43.221Z,101379.75
2022-12-03T08:18:47.102Z,101372.50
2022-12-03T08:21:49.558Z,101378.31
2022-12-03T08:24:52.071Z,101379.47
2022-12-03T08:28:00.448Z,101383.69
2022-12-03T08:31:20.089Z,101384.63
2022-12-03T08:34:31.921Z,101376.31
2022-12-03T08:37:36.164Z,101376.34
2022-12-03T08:40:43.898Z,101376.47
2022-12-03T08:43:46.509Z,101384.25
2022-12-03T08:47:21.364Z,101391.16
2022-12-03T08:50:31.550Z,101382.25
2022-12-03T08:53:36.945Z,101398.66
2022-12-03T08:56:39.289Z,101392.56
2022-12-03T08:59:45.505Z,101402.84
2022-12-03T09:02:51.346Z,101395.81
2022-12-03T09:05:53.685Z,101390.06
2022-12-03T09:08:56.235Z,101397.19
2022-12-03T09:11:58.828Z,101398.78
2022-12-03T09:15:01.127Z,101388.88
2022-12-03T09:18:03.651Z,101393.34
2022-12-03T09:21:06.543Z,101378.31
2022-12-03T09:24:12.028Z,101386.44
2022-12-03T09:27:14.381Z,101385.44
2022-12-03T09:30:17.238Z,101380.84
2022-12-03T09:33:21.539Z,101375.94
2022-12-03T09:36:23.873Z,101384.38
2022-12-03T09:39:26.471Z,101372.28
2022-12-03T09:42:28.767Z,101365.78
2022-12-03T09:45:31.150Z,101376.50
2022-12-03T09:48:33.557Z,101377.56
2022-12-03T09:51:36.772Z,101369.22
2022-12-03T09:54:42.808Z,101362.31
2022-12-03T09:57:48.278Z,101358.53
2022-12-03T10:00:52.599Z,101359.47
2022-12-03T10:03:54.984Z,101357.50
2022-12-03T10:06:59.074Z,101358.41
2022-12-03T10:10:01.598Z,101358.06
2022-12-03T10:13:07.332Z,101358.88
2022-12-03T10:16:13.437Z,101343.56
2022-12-03T10:19:26.117Z,101337.88
2022-12-03T10:22:28.624Z,101338.91
2022-12-03T10:25:30.993Z,101336.53
2022-12-03T10:28:43.713Z,101337.88
2022-12-03T10:31:54.342Z,101331.88
2022-12-03T10:35:16.238Z,101320.50
2022-12-03T10:38:20.018Z,101318.41
2022-12-03T10:41:28.155Z,101320.00
2022-12-03T10:44:30.718Z,101312.53
2022-12-03T10:47:33.182Z,101320.94
2022-12-03T10:50:36.309Z,101310.47
2022-12-03T10:53:40.667Z,101315.50
2022-12-03T10:56:43.900Z,101311.34
2022-12-03T10:59:46.865Z,101312.72
2022-12-03T11:02:54.819Z,101292.78
2022-12-03T11:06:01.001Z,101299.34
2022-12-03T11:09:08.826Z,101297.38
2022-12-03T11:12:24.717Z,101290.72
2022-12-03T11:15:43.946Z,101283.00
2022-12-03T11:18:58.375Z,101284.97
2022-12-03T11:22:04.940Z,101270.63
2022-12-03T11:25:25.478Z,101270.38
2022-12-03T11:28:27.723Z,101263.00
2022-12-03T11:31:37.517Z,101264.09
2022-12-03T11:34:40.677Z,101259.63
2022-12-03T11:37:43.067Z,101251.41
2022-12-03T11:41:08.184Z,101248.84
2022-12-03T11:44:31.504Z,101249.53
2022-12-03T11:47:39.079Z,101251.25
2022-12-03T11:50:44.902Z,101247.75
2022-12-03T11:53:47.870Z,101244.53
2022-12-03T11:56:52.289Z,101244.88
2022-12-03T12:00:07.321Z,101252.97
2022-12-03T12:03:23.079Z,101243.00
2022-12-03T12:06:25.531Z,101242.78
2022-12-03T12:09:56.005Z,101240.88
2022-12-03T12:12:58.422Z,101231.97
2022-12-03T12:16:02.988Z,101231.56
2022-12-03T12:19:27.997Z,101237.00
2022-12-03T12:22:31.379Z,101219.94
2022-12-03T12:25:40.355Z,101218.66
2022-12-03T12:28:42.706Z,101211.69
2022-12-03T12:31:47.319Z,101220.13
2022-12-03T12:34:57.957Z,101223.56
2022-12-03T12:38:14.747Z,101226.72
2022-12-03T12:41:17.214Z,101215.13
2022-12-03T12:44:23.245Z,101212.91
2022-12-03T12:47:26.050Z,101211.41
2022-12-03T12:50:28.423Z,101208.06
2022-12-03T12:53:34.140Z,101210.78
2022-12-03T12:56:36.781Z,101202.91
2022-12-03T12:59:39.309Z,101204.31
2022-12-03T13:03:00.026Z,101192.41
2022-12-03T13:06:03.278Z,101203.72
2022-12-03T13:09:12.949Z,101198.09
2022-12-03T13:12:21.889Z,101209.84
2022-12-03T13:15:42.497Z,101210.03
2022-12-03T13:18:53.324Z,101213.84
2022-12-03T13:21:58.645Z,101209.84
2022-12-03T13:25:44.038Z,101220.53
2022-12-03T13:28:45.563Z,101214.03
2022-12-03T13:31:58.037Z,101209.75
2022-12-03T13:35:06.515Z,101208.28
2022-12-03T13:38:16.946Z,101207.56
2022-12-03T13:41:40.033Z,101218.78
2022-12-03T13:44:49.018Z,101224.81
2022-12-03T13:48:24.923Z,101225.72
2022-12-03T13:51:32.654Z,101216.41
2022-12-03T13:54:37.951Z,101220.53
2022-12-03T13:57:40.357Z,101211.66
2022-12-03T14:00:42.778Z,101220.69
2022-12-03T14:03:45.207Z,101216.69
2022-12-03T14:06:47.585Z,101224.00
2022-12-03T14:09:49.852Z,101234.13
2022-12-03T14:12:52.156Z,101230.16
2022-12-03T14:15:54.440Z,101229.47
2022-12-03T14:18:56.729Z,101234.38
2022-12-03T14:22:00.242Z,101232.25
2022-12-03T14:25:02.564Z,101229.06
2022-12-03T14:28:08.732Z,101237.03
2022-12-03T14:31:12.593Z,101229.97
2022-12-03T14:34:14.912Z,101231.47
2022-12-03T14:37:17.626Z,101234.19
2022-12-03T14:40:22.189Z,101233.06
2022-12-03T14:43:25.250Z,101236.34
2022-12-03T14:46:27.607Z,101234.75
2022-12-03T14:49:30.106Z,101231.56
2022-12-03T14:52:32.794Z,101235.88
2022-12-03T14:55:35.044Z,101248.09
2022-12-03T14:58:37.385Z,101235.91
2022-12-03T15:01:39.784Z,101243.88
2022-12-03T15:04:42.239Z,101243.97
2022-12-03T15:07:44.617Z,101242.50
2022-12-03T15:10:46.988Z,101248.81
2022-12-03T15:13:49.481Z,101241.28
2022-12-03T15:16:51.916Z,101236.28
2022-12-03T15:19:54.390Z,101239.78
2022-12-03T15:22:56.863Z,101237.28
2022-12-03T15:25:59.398Z,101238.91
2022-12-03T15:29:01.671Z,101240.47
2022-12-03T15:32:03.966Z,101242.63
2022-12-03T15:35:06.963Z,101237.59
2022-12-03T15:38:10.138Z,101242.13
2022-12-03T15:41:21.700Z,101252.31
2022-12-03T15:44:23.951Z,101253.88
2022-12-03T15:47:26.406Z,101250.19
2022-12-03T15:50:28.736Z,101247.66
2022-12-03T15:53:31.036Z,101250.38
2022-12-03T15:56:37.600Z,101252.47
2022-12-03T15:59:40.010Z,101249.38
2022-12-03T16:02:45.103Z,101253.06
2022-12-03T16:05:51.449Z,101240.72
2022-12-03T16:08:53.688Z,101253.84
2022-12-03T16:11:56.135Z,101243.97
2022-12-03T16:14:58.419Z,101247.28
2022-12-03T16:18:01.154Z,101244.69
2022-12-03T16:21:03.549Z,101252.97
2022-12-03T16:24:06.115Z,101252.56
2022-12-03T16:27:08.897Z,101258.78
2022-12-03T16:30:11.757Z,101257.88
2022-12-03T16:33:14.057Z,101265.31
2022-12-03T16:36:16.654Z,101258.78
2022-12-03T16:39:19.352Z,101255.47
2022-12-03T16:42:21.701Z,101252.91
2022-12-03T16:45:29.653Z,101253.97
2022-12-03T16:48:31.976Z,101256.63
2022-12-03T16:51:34.198Z,101261.84
2022-12-03T16:54:36.598Z,101249.84
2022-12-03T16:57:38.874Z,101261.31
2022-12-03T17:00:41.152Z,101259.63
2022-12-03T17:03:43.483Z,101266.06
2022-12-03T17:06:46.794Z,101261.59
2022-12-03T17:09:49.259Z,101259.63
2022-12-03T17:16:14.307Z,101262.63
2022-12-03T17:19:17.391Z,101260.78
2022-12-03T17:22:19.711Z,101261.13
2022-12-03T17:25:22.159Z,101266.81
2022-12-03T17:28:24.393Z,101261.41
2022-12-03T17:31:26.686Z,101267.47
2022-12-03T17:34:29.027Z,101266.72
2022-12-03T17:37:31.282Z,101275.38
2022-12-03T17:40:33.549Z,101263.97
2022-12-03T17:43:35.897Z,101258.38
2022-12-03T17:46:38.323Z,101263.00
2022-12-03T17:49:40.670Z,101259.97
2022-12-03T17:52:43.016Z,101260.63
2022-12-03T17:55:47.013Z,101263.84
2022-12-03T17:58:49.326Z,101267.50
2022-12-03T18:01:51.691Z,101260.31
2022-12-03T18:04:54.060Z,101258.91
2022-12-03T18:07:56.530Z,101257.97
2022-12-03T18:10:58.811Z,101259.81
2022-12-03T18:14:01.501Z,101256.22
2022-12-03T18:17:03.756Z,101264.66
2022-12-03T18:20:07.347Z,101261.06
2022-12-03T18:23:09.814Z,101254.09
2022-12-03T18:26:12.203Z,101254.25
2022-12-03T18:29:14.509Z,101253.09
2022-12-03T18:32:28.443Z,101259.31
2022-12-03T18:35:31.774Z,101256.16
2022-12-03T18:38:34.214Z,101258.75
2022-12-03T18:41:36.865Z,101254.72
2022-12-03T18:44:39.098Z,101264.72
2022-12-03T18:47:41.477Z,101264.72
2022-12-03T18:50:45.282Z,101262.91
2022-12-03T18:53:48.356Z,101271.13
2022-12-03T18:56:50.904Z,101261.50
2022-12-03T18:59:53.538Z,101270.91
2022-12-03T19:03:04.309Z,101267.53
2022-12-03T19:06:17.090Z,101257.88
2022-12-03T19:09:21.048Z,101266.06
2022-12-03T19:12:23.527Z,101267.88
2022-12-03T19:15:25.904Z,101265.13
2022-12-03T19:18:28.207Z,101259.50
2022-12-03T19:21:33.694Z,101270.31
2022-12-03T19:24:36.315Z,101268.09
2022-12-03T19:27:38.601Z,101267.13
2022-12-03T19:30:40.855Z,101273.34
2022-12-03T19:33:44.262Z,101268.97
2022-12-03T19:36:47.536Z,101273.75
2022-12-03T19:39:54.227Z,101277.16
2022-12-03T19:42:56.897Z,101284.97
2022-12-03T19:46:07.062Z,101292.97
2022-12-03T19:49:10.896Z,101288.34
2022-12-03T19:52:13.130Z,101288.53
2022-12-03T19:55:19.492Z,101289.56
2022-12-03T19:58:22.150Z,101296.75
2022-12-03T20:01:30.138Z,101294.75
2022-12-03T20:04:32.542Z,101284.78
2022-12-03T20:07:34.867Z,101283.56
2022-12-03T20:10:40.754Z,101275.38
2022-12-03T20:13:44.009Z,101282.34
2022-12-03T20:16:47.635Z,101276.13
2022-12-03T20:19:49.938Z,101286.97
2022-12-03T20:22:52.305Z,101282.75
2022-12-03T20:25:55.077Z,101283.13
2022-12-03T20:28:58.332Z,101289.34
2022-12-03T20:32:01.155Z,101286.34
2022-12-03T20:35:04.078Z,101280.13
2022-12-03T20:38:06.436Z,101277.91
2022-12-03T20:41:12.933Z,101277.50
2022-12-03T20:44:15.355Z,101282.31
2022-12-03T20:47:17.715Z,101286.75
2022-12-03T20:50:19.950Z,101289.94
2022-12-03T20:53:25.079Z,101284.13
2022-12-03T20:56:34.270Z,101283.72
2022-12-03T20:59:36.583Z,101283.16
2022-12-03T21:02:39.010Z,101291.16
2022-12-03T21:05:43.962Z,101284.72
2022-12-03T21:08:46.567Z,101281.34
2022-12-03T21:11:48.884Z,101281.94
2022-12-03T21:14:51.144Z,101286.34
2022-12-03T21:17:53.519Z,101278.38
2022-12-03T21:20:55.927Z,101282.38
2022-12-03T21:23:58.691Z,101274.94
2022-12-03T21:27:01.074Z,101280.16
2022-12-03T21:30:03.776Z,101266.16
2022-12-03T21:33:07.050Z,101283.16
2022-12-03T21:36:10.535Z,101285.56
2022-12-03T21:39:12.867Z,101288.19
2022-12-03T21:42:34.882Z,101281.56
2022-12-03T21:45:40.638Z,101283.13
2022-12-03T21:48:46.164Z,101269.72
2022-12-03T21:51:48.785Z,101274.53
2022-12-03T21:54:54.296Z,101269.31
2022-12-03T21:57:56.655Z,101266.31
2022-12-03T22:00:59.081Z,101266.47
2022-12-03T22:04:01.421Z,101265.66
2022-12-03T22:07:04.701Z,101264.69
2022-12-03T22:10:09.638Z,101267.84
2022-12-03T22:13:12.267Z,101256.97
2022-12-03T22:16:20.463Z,101264.13
2022-12-03T22:19:24.046Z,101270.13
2022-12-03T22:22:26.608Z,101264.50
2022-12-03T22:25:30.509Z,101252.28
2022-12-03T22:28:34.368Z,101253.66
2022-12-03T22:31:36.739Z,101260.03
2022-12-03T22:34:43.744Z,101253.44
2022-12-03T22:37:48.428Z,101247.63
2022-12-03T22:40:50.929Z,101248.41
2022-12-03T22:43:53.429Z,101248.81
2022-12-03T22:46:55.846Z,101234.78
2022-12-03T22:49:58.168Z,101239.19
2022-12-03T22:53:00.486Z,101232.56
2022-12-03T22:56:03.060Z,101233.38
2022-12-03T22:59:06.070Z,101247.34
2022-12-03T23:02:08.330Z,101244.34
2022-12-03T23:05:10.639Z,101240.75
2022-12-03T23:08:16.079Z,101237.09
2022-12-03T23:11:19.598Z,101240.06
2022-12-03T23:14:21.927Z,101233.44
2022-12-03T23:17:24.218Z,101237.22
2022-12-03T23:20:26.831Z,101235.81
2022-12-03T23:23:29.148Z,101237.97
2022-12-03T23:26:35.259Z,101229.78
2022-12-03T23:29:37.504Z,101234.03
2022-12-03T23:32:39.935Z,101215.91
2022-12-03T23:35:42.308Z,101230.34
2022-12-03T23:38:44.888Z,101221.34
2022-12-03T23:41:50.857Z,101221.22
2022-12-03T23:44:53.112Z,101210.63
2022-12-03T23:47:58.316Z,101207.88
2022-12-03T23:51:06.170Z,101210.53
2022-12-03T23:54:09.753Z,101208.22
2022-12-03T23:57:12.773Z,101215.03
